Alfred, North Dakota
Current Conditions -  °F | °C
As of 3:14 PM on Monday 22 Dec 2014 (Local Time) from KJMS Reporting Station
Haze Haze  
Wind Chill: 26°   Ceiling: 300
Heat Index: 34°   Visibility: 4mi
Dew Point: 32°   Wind: 10mph
Humidity: 92%   Direction: 30°NNE
Pressure: 29.49"   Gusts: NA
Location:  46.4882°N, 98.8135°W
Report Text: KJMS 222114Z AUTO 03009KT 4SM UP BR BKN003 OVC007 01/00 A2949 RMK AO2 P0000 T00110000
Loading
Personal Weather Stations






























Interactive Weather Map New forecast layout! Learn more

10-Day Weather Forecast

Advertisements
Track Severe Weather on mobile